Idaho Falls, ID

3:25 PM MDT on April 26, 2015 (GMT -0600)
Idaho Falls - East Lincoln Road/45th | | Change Station
CLOSE
Current Station
Personal Weather Station
Location: Idaho Falls, ID
Elevation: 4767 ft
Nearby Weather Stations

Elev 4767 ft 43.51 °N, 111.94 °W | Updated 32 seconds ago

Overcast
Overcast
46.4 °F
Feels Like 43 °F
N
6.5
Wind Variable Wind from South
Gusts 7.4 mph

Today
High -- | Low -- °F
--% Chance of Precip.
Yesterday
High -- | Low -- °F
Precip. -- in
6:27 AM 8:23 PM
First Quarter, 58% visible
Pressure 30.02 in
Visibility 10.0 miles
Clouds Overcast 4700 ft
Windchill 43 °F
Dew Point 36 °F
Humidity 68%
Rainfall 0.07 in
Snow Depth Not available.
UV 2.0 out of 12
Pollen 5.50 out of 12
Air Quality Not available.
Flu Activity Sporadic
METAR KIDA 262053Z 21009KT 10SM OVC047 08/02 A3003 RMK AO2 SLP165 T00830022 51010

More Conditions Fewer Conditions

Pressure 30.02 in
Visibility 10.0 miles
Clouds Overcast 4700 ft
Windchill 43 °F
Dew Point 36 °F
Humidity 68%
Rainfall 0.07 in
Snow Depth Not available.
UV 2.0 out of 12
Pollen 5.50 out of 12
Air Quality Not available.
Flu Activity Sporadic
METAR KIDA 262053Z 21009KT 10SM OVC047 08/02 A3003 RMK AO2 SLP165 T00830022 51010

More Conditions Fewer Conditions

The full scope of the disaster following a powerful 7.8-magnitude earthquake in Nepal may not come into view for days, but global charities are already sending emergency aid. Click to see how you can help.

10-Day Weather Forecast

Almanac

Astronomy

Apr. 26, 2015 Rise Set
Actual Time
Civil Twilight
Nautical Twilight
Astronomical Twilight
Moon
Length of Visible Light
Length of Day
Tomorrow will be .
, % of the Moon is Illuminated

Today's Extremes

State Highs State Lows

Community

WunderPhotos

Upload Photos

1,817,127 photos uploaded!

WunderBlogs® & News

Nearby

Air Quality

  Air Quality AQ Index Pollutant
Not available.

Snow Depth

Station Depth Elevation

Earthquake Activity

City Distance Mag. Time & Date
Minimum magnitude displayed is 2.5.

Coastal Water Temperatures

Place Temperature

Stations

Nearby Weather Stations

Station Location Temp. Windchill Dew Point Humidity Wind Precip. Elev Updated Type